SHMÚ vydal meteorologické výstrahy na Low temperaturesFog Display warnings

HYDROLOGICAL WARNING Level 1 Display warnings

Smog situation PM10 – Jelšava Display warnings

TAF

Aerodrome Forecast TAF

TAF description (Slovak)

19.01.2017 - 05:00 UTC

TAF LZIB 190500Z 1906/2006 25005KT CAVOK
    BECMG 2000/2002 VRB02KT 5000 BR SCT012
    PROB30 TEMPO 2002/2006 1200 BCFG BKN006=
TAF LZKZ 190500Z 1906/2006 36015KT CAVOK
    BECMG 1910/1912 02005KT=
TAF LZTT 190500Z 1906/2006 27006KT 9999 BKN010
    TEMPO 1906/1909 2000 BCFG OVC004
    BECMG 1909/1911 BKN018
    TEMPO 1911/1918 FEW020
    BECMG 1918/1920 BKN010=

19.01.2017 - 05:00 UTC

TAF LZSL 190500Z 1906/1915 VRB02KT 0100 FZFG OVC001
    BECMG 1906/1908 0800 FZFG SCT004
    BECMG 1908/1910 CAVOK=
TAF LZPP 190500Z 1906/1915 36004KT CAVOK
    PROB30 TEMPO 1906/1908 5000 BR SCT005=
TAF LZZI 190500Z 1906/1915 06005KT CAVOK
    PROB30 TEMPO 1906/1908 5000 BR BKN010=

19.01.2017 - 02:00 UTC

TAF LZSL 190200Z 1903/1912 VRB02KT 0800 FZFG BKN005
    TEMPO 1903/1908 0100 FZFG OVC001
    BECMG 1908/1910 CAVOK=
TAF LZZI 190200Z 1903/1912 04005KT 6000 FEW020
    PROB40 TEMPO 1903/1908 4000 BR BKN008
    BECMG 1908/1910 CAVOK=

skok na menu ↑


skok na začiatok stránky ↑